sensor_id;sensor_type;location;lat;lon;timestamp;P1;durP1;ratioP1;P2;durP2;ratioP2
42066;SDS011;27734;47.028;28.820;2023-07-20T00:02:01;19.10;;;8.97;;
42066;SDS011;27734;47.028;28.820;2023-07-20T00:04:32;19.83;;;9.20;;
42066;SDS011;27734;47.028;28.820;2023-07-20T00:07:00;20.63;;;9.50;;
42066;SDS011;27734;47.028;28.820;2023-07-20T00:09:29;17.93;;;8.43;;
42066;SDS011;27734;47.028;28.820;2023-07-20T00:11:58;20.07;;;8.77;;
42066;SDS011;27734;47.028;28.820;2023-07-20T00:14:27;15.57;;;8.10;;
42066;SDS011;27734;47.028;28.820;2023-07-20T00:16:55;18.20;;;8.17;;
42066;SDS011;27734;47.028;28.820;2023-07-20T00:19:25;20.40;;;8.10;;
42066;SDS011;27734;47.028;28.820;2023-07-20T00:21:54;19.43;;;7.77;;
42066;SDS011;27734;47.028;28.820;2023-07-20T00:24:23;22.90;;;7.93;;
42066;SDS011;27734;47.028;28.820;2023-07-20T00:26:52;15.27;;;7.57;;
42066;SDS011;27734;47.028;28.820;2023-07-20T00:29:21;17.10;;;7.50;;
42066;SDS011;27734;47.028;28.820;2023-07-20T00:31:49;15.43;;;6.83;;
42066;SDS011;27734;47.028;28.820;2023-07-20T00:34:18;21.35;;;7.05;;
42066;SDS011;27734;47.028;28.820;2023-07-20T00:36:46;14.43;;;6.90;;
42066;SDS011;27734;47.028;28.820;2023-07-20T00:39:15;13.87;;;5.90;;
42066;SDS011;27734;47.028;28.820;2023-07-20T00:41:44;12.83;;;5.80;;
42066;SDS011;27734;47.028;28.820;2023-07-20T00:44:12;10.40;;;5.33;;
42066;SDS011;27734;47.028;28.820;2023-07-20T00:46:41;10.87;;;5.10;;
42066;SDS011;27734;47.028;28.820;2023-07-20T00:49:10;12.13;;;5.40;;
42066;SDS011;27734;47.028;28.820;2023-07-20T00:51:39;11.87;;;5.60;;
42066;SDS011;27734;47.028;28.820;2023-07-20T00:54:09;11.03;;;5.00;;
42066;SDS011;27734;47.028;28.820;2023-07-20T00:56:38;9.50;;;4.93;;
42066;SDS011;27734;47.028;28.820;2023-07-20T00:59:07;11.27;;;5.40;;
42066;SDS011;27734;47.028;28.820;2023-07-20T01:01:36;11.07;;;5.27;;
42066;SDS011;27734;47.028;28.820;2023-07-20T01:04:05;10.13;;;5.50;;
42066;SDS011;27734;47.028;28.820;2023-07-20T01:06:36;11.97;;;5.43;;
42066;SDS011;27734;47.028;28.820;2023-07-20T01:09:12;10.10;;;5.60;;
42066;SDS011;27734;47.028;28.820;2023-07-20T01:11:48;14.77;;;5.67;;
42066;SDS011;27734;47.028;28.820;2023-07-20T01:14:21;13.27;;;5.23;;
42066;SDS011;27734;47.028;28.820;2023-07-20T01:16:50;11.70;;;5.27;;
42066;SDS011;27734;47.028;28.820;2023-07-20T01:19:19;11.27;;;5.43;;
42066;SDS011;27734;47.028;28.820;2023-07-20T01:21:50;13.07;;;5.20;;
42066;SDS011;27734;47.028;28.820;2023-07-20T01:24:41;7.70;;;4.87;;
42066;SDS011;27734;47.028;28.820;2023-07-20T01:27:29;10.17;;;4.97;;
42066;SDS011;27734;47.028;28.820;2023-07-20T01:30:32;11.68;;;5.22;;
42066;SDS011;27734;47.028;28.820;2023-07-20T01:33:12;11.10;;;5.10;;
42066;SDS011;27734;47.028;28.820;2023-07-20T01:35:43;11.03;;;5.10;;
42066;SDS011;27734;47.028;28.820;2023-07-20T01:38:15;9.87;;;4.80;;
42066;SDS011;27734;47.028;28.820;2023-07-20T01:40:45;7.13;;;4.23;;
42066;SDS011;27734;47.028;28.820;2023-07-20T01:43:14;12.43;;;4.90;;
42066;SDS011;27734;47.028;28.820;2023-07-20T01:45:43;9.00;;;4.20;;
42066;SDS011;27734;47.028;28.820;2023-07-20T01:48:14;10.47;;;4.43;;
42066;SDS011;27734;47.028;28.820;2023-07-20T01:50:42;13.83;;;4.73;;
42066;SDS011;27734;47.028;28.820;2023-07-20T01:53:11;9.67;;;4.80;;
42066;SDS011;27734;47.028;28.820;2023-07-20T01:55:39;12.67;;;4.97;;
42066;SDS011;27734;47.028;28.820;2023-07-20T01:58:08;15.63;;;5.30;;
42066;SDS011;27734;47.028;28.820;2023-07-20T02:00:37;14.40;;;5.37;;
42066;SDS011;27734;47.028;28.820;2023-07-20T02:03:06;12.40;;;5.17;;
42066;SDS011;27734;47.028;28.820;2023-07-20T02:05:35;9.83;;;5.07;;
42066;SDS011;27734;47.028;28.820;2023-07-20T02:08:03;7.17;;;4.43;;
42066;SDS011;27734;47.028;28.820;2023-07-20T02:10:32;8.37;;;4.90;;
42066;SDS011;27734;47.028;28.820;2023-07-20T02:13:01;11.60;;;4.73;;
42066;SDS011;27734;47.028;28.820;2023-07-20T02:15:29;11.73;;;5.10;;
42066;SDS011;27734;47.028;28.820;2023-07-20T02:17:58;8.37;;;4.90;;
42066;SDS011;27734;47.028;28.820;2023-07-20T02:20:26;11.13;;;5.20;;
42066;SDS011;27734;47.028;28.820;2023-07-20T02:22:55;10.73;;;5.20;;
42066;SDS011;27734;47.028;28.820;2023-07-20T02:25:23;11.30;;;5.70;;
42066;SDS011;27734;47.028;28.820;2023-07-20T02:27:52;10.07;;;4.73;;
42066;SDS011;27734;47.028;28.820;2023-07-20T02:30:20;10.23;;;5.17;;
42066;SDS011;27734;47.028;28.820;2023-07-20T02:32:49;13.73;;;5.23;;
42066;SDS011;27734;47.028;28.820;2023-07-20T02:35:18;10.13;;;5.03;;
42066;SDS011;27734;47.028;28.820;2023-07-20T02:37:46;10.90;;;4.80;;
42066;SDS011;27734;47.028;28.820;2023-07-20T02:40:16;11.63;;;5.87;;
42066;SDS011;27734;47.028;28.820;2023-07-20T02:42:44;12.23;;;5.20;;
42066;SDS011;27734;47.028;28.820;2023-07-20T02:45:13;13.30;;;5.60;;
42066;SDS011;27734;47.028;28.820;2023-07-20T02:47:42;11.03;;;5.03;;
42066;SDS011;27734;47.028;28.820;2023-07-20T02:50:12;12.77;;;5.43;;
42066;SDS011;27734;47.028;28.820;2023-07-20T02:52:43;10.03;;;5.60;;
42066;SDS011;27734;47.028;28.820;2023-07-20T02:55:12;9.53;;;5.43;;
42066;SDS011;27734;47.028;28.820;2023-07-20T02:57:40;10.87;;;5.40;;
42066;SDS011;27734;47.028;28.820;2023-07-20T03:00:10;10.40;;;5.30;;
42066;SDS011;27734;47.028;28.820;2023-07-20T03:02:43;10.73;;;5.33;;
42066;SDS011;27734;47.028;28.820;2023-07-20T03:05:14;10.87;;;5.73;;
42066;SDS011;27734;47.028;28.820;2023-07-20T03:07:43;12.50;;;5.20;;
42066;SDS011;27734;47.028;28.820;2023-07-20T03:10:12;10.07;;;5.20;;
42066;SDS011;27734;47.028;28.820;2023-07-20T03:12:40;11.17;;;4.90;;
42066;SDS011;27734;47.028;28.820;2023-07-20T03:15:10;13.47;;;5.53;;
42066;SDS011;27734;47.028;28.820;2023-07-20T03:17:39;12.17;;;5.10;;
42066;SDS011;27734;47.028;28.820;2023-07-20T03:20:08;10.43;;;4.97;;
42066;SDS011;27734;47.028;28.820;2023-07-20T03:22:39;11.23;;;4.90;;
42066;SDS011;27734;47.028;28.820;2023-07-20T03:25:08;11.43;;;5.40;;
42066;SDS011;27734;47.028;28.820;2023-07-20T03:27:37;15.57;;;6.70;;
42066;SDS011;27734;47.028;28.820;2023-07-20T03:30:07;11.77;;;5.37;;
42066;SDS011;27734;47.028;28.820;2023-07-20T03:32:38;12.73;;;5.60;;
42066;SDS011;27734;47.028;28.820;2023-07-20T03:35:08;9.83;;;5.00;;
42066;SDS011;27734;47.028;28.820;2023-07-20T03:37:36;9.63;;;5.00;;
42066;SDS011;27734;47.028;28.820;2023-07-20T03:40:06;14.40;;;5.17;;
42066;SDS011;27734;47.028;28.820;2023-07-20T03:42:37;10.70;;;4.90;;
42066;SDS011;27734;47.028;28.820;2023-07-20T03:45:07;9.83;;;5.03;;
42066;SDS011;27734;47.028;28.820;2023-07-20T03:47:36;12.43;;;5.57;;
42066;SDS011;27734;47.028;28.820;2023-07-20T03:50:06;11.23;;;5.57;;
42066;SDS011;27734;47.028;28.820;2023-07-20T03:52:36;11.60;;;5.90;;
42066;SDS011;27734;47.028;28.820;2023-07-20T03:55:05;10.77;;;5.87;;
42066;SDS011;27734;47.028;28.820;2023-07-20T03:57:35;12.90;;;5.60;;
42066;SDS011;27734;47.028;28.820;2023-07-20T04:00:07;10.13;;;5.87;;
42066;SDS011;27734;47.028;28.820;2023-07-20T04:02:41;11.90;;;5.47;;
42066;SDS011;27734;47.028;28.820;2023-07-20T04:05:10;9.73;;;5.13;;
42066;SDS011;27734;47.028;28.820;2023-07-20T04:07:38;10.90;;;5.20;;
42066;SDS011;27734;47.028;28.820;2023-07-20T04:10:08;10.23;;;5.80;;
42066;SDS011;27734;47.028;28.820;2023-07-20T04:12:37;11.97;;;5.47;;
42066;SDS011;27734;47.028;28.820;2023-07-20T04:15:07;14.73;;;5.80;;
42066;SDS011;27734;47.028;28.820;2023-07-20T04:17:39;18.53;;;6.00;;
42066;SDS011;27734;47.028;28.820;2023-07-20T04:20:10;16.27;;;5.90;;
42066;SDS011;27734;47.028;28.820;2023-07-20T04:22:39;11.13;;;5.77;;
42066;SDS011;27734;47.028;28.820;2023-07-20T04:25:12;13.13;;;5.77;;
42066;SDS011;27734;47.028;28.820;2023-07-20T04:27:40;12.67;;;5.47;;
42066;SDS011;27734;47.028;28.820;2023-07-20T04:30:10;13.90;;;6.20;;
42066;SDS011;27734;47.028;28.820;2023-07-20T04:32:40;12.77;;;5.63;;
42066;SDS011;27734;47.028;28.820;2023-07-20T04:35:17;16.20;;;6.10;;
42066;SDS011;27734;47.028;28.820;2023-07-20T04:38:07;15.40;;;6.23;;
42066;SDS011;27734;47.028;28.820;2023-07-20T04:40:45;19.27;;;6.83;;
42066;SDS011;27734;47.028;28.820;2023-07-20T04:43:14;12.33;;;6.10;;
42066;SDS011;27734;47.028;28.820;2023-07-20T04:45:46;12.50;;;5.90;;
42066;SDS011;27734;47.028;28.820;2023-07-20T04:48:15;17.33;;;6.17;;
42066;SDS011;27734;47.028;28.820;2023-07-20T04:50:55;13.27;;;5.60;;
42066;SDS011;27734;47.028;28.820;2023-07-20T04:53:24;14.73;;;6.63;;
42066;SDS011;27734;47.028;28.820;2023-07-20T04:55:53;15.30;;;6.27;;
42066;SDS011;27734;47.028;28.820;2023-07-20T04:58:23;15.13;;;6.60;;
42066;SDS011;27734;47.028;28.820;2023-07-20T05:00:53;15.23;;;5.90;;
42066;SDS011;27734;47.028;28.820;2023-07-20T05:03:21;14.10;;;6.17;;
42066;SDS011;27734;47.028;28.820;2023-07-20T05:05:50;15.37;;;6.03;;
42066;SDS011;27734;47.028;28.820;2023-07-20T05:08:19;13.53;;;6.40;;
42066;SDS011;27734;47.028;28.820;2023-07-20T05:10:49;16.77;;;6.17;;
42066;SDS011;27734;47.028;28.820;2023-07-20T05:13:18;13.23;;;5.90;;
42066;SDS011;27734;47.028;28.820;2023-07-20T05:15:46;12.77;;;5.67;;
42066;SDS011;27734;47.028;28.820;2023-07-20T05:18:18;13.53;;;6.27;;
42066;SDS011;27734;47.028;28.820;2023-07-20T05:20:48;19.63;;;6.40;;
42066;SDS011;27734;47.028;28.820;2023-07-20T05:23:23;16.13;;;6.67;;
42066;SDS011;27734;47.028;28.820;2023-07-20T05:25:58;13.33;;;6.30;;
42066;SDS011;27734;47.028;28.820;2023-07-20T05:28:28;14.73;;;6.77;;
42066;SDS011;27734;47.028;28.820;2023-07-20T05:30:57;14.60;;;6.70;;
42066;SDS011;27734;47.028;28.820;2023-07-20T05:33:26;15.17;;;6.00;;
42066;SDS011;27734;47.028;28.820;2023-07-20T05:35:55;12.37;;;6.10;;
42066;SDS011;27734;47.028;28.820;2023-07-20T05:38:23;13.17;;;6.50;;
42066;SDS011;27734;47.028;28.820;2023-07-20T05:40:52;11.70;;;6.13;;
42066;SDS011;27734;47.028;28.820;2023-07-20T05:43:26;14.73;;;6.93;;
42066;SDS011;27734;47.028;28.820;2023-07-20T05:45:55;13.07;;;6.73;;
42066;SDS011;27734;47.028;28.820;2023-07-20T05:48:24;12.13;;;6.10;;
42066;SDS011;27734;47.028;28.820;2023-07-20T05:50:52;17.53;;;6.60;;
42066;SDS011;27734;47.028;28.820;2023-07-20T05:53:21;13.60;;;6.60;;
42066;SDS011;27734;47.028;28.820;2023-07-20T05:55:53;13.53;;;6.03;;
42066;SDS011;27734;47.028;28.820;2023-07-20T05:58:22;13.20;;;6.67;;
42066;SDS011;27734;47.028;28.820;2023-07-20T06:00:51;14.67;;;6.73;;
42066;SDS011;27734;47.028;28.820;2023-07-20T06:03:25;14.50;;;6.73;;
42066;SDS011;27734;47.028;28.820;2023-07-20T06:05:58;16.60;;;6.00;;
42066;SDS011;27734;47.028;28.820;2023-07-20T06:08:30;15.67;;;6.50;;
42066;SDS011;27734;47.028;28.820;2023-07-20T06:10:59;15.47;;;6.77;;
42066;SDS011;27734;47.028;28.820;2023-07-20T06:13:32;11.20;;;6.37;;
42066;SDS011;27734;47.028;28.820;2023-07-20T06:16:17;12.00;;;6.27;;
42066;SDS011;27734;47.028;28.820;2023-07-20T06:18:47;13.47;;;6.77;;
42066;SDS011;27734;47.028;28.820;2023-07-20T06:21:16;13.37;;;6.70;;
42066;SDS011;27734;47.028;28.820;2023-07-20T06:23:47;16.67;;;6.40;;
42066;SDS011;27734;47.028;28.820;2023-07-20T06:26:21;14.63;;;6.43;;
42066;SDS011;27734;47.028;28.820;2023-07-20T06:28:57;17.27;;;7.50;;
42066;SDS011;27734;47.028;28.820;2023-07-20T06:31:34;12.60;;;6.10;;
42066;SDS011;27734;47.028;28.820;2023-07-20T06:34:03;14.03;;;6.40;;
42066;SDS011;27734;47.028;28.820;2023-07-20T06:36:32;17.50;;;7.30;;
42066;SDS011;27734;47.028;28.820;2023-07-20T06:39:02;16.80;;;6.73;;
42066;SDS011;27734;47.028;28.820;2023-07-20T06:41:32;14.33;;;6.53;;
42066;SDS011;27734;47.028;28.820;2023-07-20T06:44:03;18.00;;;6.90;;
42066;SDS011;27734;47.028;28.820;2023-07-20T06:46:35;16.97;;;6.73;;
42066;SDS011;27734;47.028;28.820;2023-07-20T06:49:06;14.10;;;6.50;;
42066;SDS011;27734;47.028;28.820;2023-07-20T06:51:38;14.15;;;6.83;;
42066;SDS011;27734;47.028;28.820;2023-07-20T06:54:10;12.90;;;6.67;;
42066;SDS011;27734;47.028;28.820;2023-07-20T06:56:39;13.37;;;6.57;;
42066;SDS011;27734;47.028;28.820;2023-07-20T07:01:51;15.40;;;6.30;;
42066;SDS011;27734;47.028;28.820;2023-07-20T07:04:28;21.37;;;6.70;;
42066;SDS011;27734;47.028;28.820;2023-07-20T07:06:56;10.70;;;5.90;;
42066;SDS011;27734;47.028;28.820;2023-07-20T07:09:27;14.60;;;6.10;;
42066;SDS011;27734;47.028;28.820;2023-07-20T07:11:58;16.50;;;6.50;;
42066;SDS011;27734;47.028;28.820;2023-07-20T07:14:27;14.07;;;6.20;;
42066;SDS011;27734;47.028;28.820;2023-07-20T07:17:00;12.17;;;6.77;;
42066;SDS011;27734;47.028;28.820;2023-07-20T07:19:32;14.07;;;6.40;;
42066;SDS011;27734;47.028;28.820;2023-07-20T07:22:12;13.80;;;6.30;;
42066;SDS011;27734;47.028;28.820;2023-07-20T07:24:46;17.73;;;6.75;;
42066;SDS011;27734;47.028;28.820;2023-07-20T07:27:17;12.40;;;5.90;;
42066;SDS011;27734;47.028;28.820;2023-07-20T07:29:50;17.37;;;6.70;;
42066;SDS011;27734;47.028;28.820;2023-07-20T07:32:22;13.93;;;6.53;;
42066;SDS011;27734;47.028;28.820;2023-07-20T07:34:55;17.13;;;6.90;;
42066;SDS011;27734;47.028;28.820;2023-07-20T07:37:33;15.00;;;6.30;;
42066;SDS011;27734;47.028;28.820;2023-07-20T07:40:14;15.27;;;6.50;;
42066;SDS011;27734;47.028;28.820;2023-07-20T07:42:42;15.60;;;7.07;;
42066;SDS011;27734;47.028;28.820;2023-07-20T07:45:17;12.17;;;6.40;;
42066;SDS011;27734;47.028;28.820;2023-07-20T07:47:57;12.03;;;6.03;;
42066;SDS011;27734;47.028;28.820;2023-07-20T07:50:34;12.27;;;5.80;;
42066;SDS011;27734;47.028;28.820;2023-07-20T07:53:10;10.40;;;5.97;;
42066;SDS011;27734;47.028;28.820;2023-07-20T07:55:49;14.65;;;6.15;;
42066;SDS011;27734;47.028;28.820;2023-07-20T08:04:17;9.50;;;5.53;;
42066;SDS011;27734;47.028;28.820;2023-07-20T08:06:47;12.87;;;5.87;;
42066;SDS011;27734;47.028;28.820;2023-07-20T08:09:20;9.57;;;5.10;;
42066;SDS011;27734;47.028;28.820;2023-07-20T08:12:17;9.67;;;5.20;;
42066;SDS011;27734;47.028;28.820;2023-07-20T08:18:28;9.45;;;5.35;;
42066;SDS011;27734;47.028;28.820;2023-07-20T08:21:12;8.43;;;5.10;;
42066;SDS011;27734;47.028;28.820;2023-07-20T08:23:50;13.40;;;5.27;;
42066;SDS011;27734;47.028;28.820;2023-07-20T08:26:19;9.20;;;5.20;;
42066;SDS011;27734;47.028;28.820;2023-07-20T08:28:49;8.33;;;5.50;;
42066;SDS011;27734;47.028;28.820;2023-07-20T08:31:23;9.13;;;5.13;;
42066;SDS011;27734;47.028;28.820;2023-07-20T08:34:04;9.07;;;5.10;;
42066;SDS011;27734;47.028;28.820;2023-07-20T08:36:54;9.53;;;4.73;;
42066;SDS011;27734;47.028;28.820;2023-07-20T08:39:25;8.97;;;4.53;;
42066;SDS011;27734;47.028;28.820;2023-07-20T08:41:59;7.93;;;4.80;;
42066;SDS011;27734;47.028;28.820;2023-07-20T08:44:42;6.93;;;4.60;;
42066;SDS011;27734;47.028;28.820;2023-07-20T08:47:34;8.77;;;4.70;;
42066;SDS011;27734;47.028;28.820;2023-07-20T08:50:06;9.80;;;5.00;;
42066;SDS011;27734;47.028;28.820;2023-07-20T08:52:55;8.17;;;5.37;;
42066;SDS011;27734;47.028;28.820;2023-07-20T08:55:26;10.70;;;4.93;;
42066;SDS011;27734;47.028;28.820;2023-07-20T08:58:09;7.10;;;4.25;;
42066;SDS011;27734;47.028;28.820;2023-07-20T09:01:21;5.50;;;4.23;;
42066;SDS011;27734;47.028;28.820;2023-07-20T09:04:14;8.63;;;4.60;;
42066;SDS011;27734;47.028;28.820;2023-07-20T09:06:56;9.03;;;5.00;;
42066;SDS011;27734;47.028;28.820;2023-07-20T09:09:30;11.27;;;4.07;;
42066;SDS011;27734;47.028;28.820;2023-07-20T09:12:05;6.30;;;3.90;;
42066;SDS011;27734;47.028;28.820;2023-07-20T09:14:44;5.30;;;3.70;;
42066;SDS011;27734;47.028;28.820;2023-07-20T09:17:15;5.40;;;3.97;;
42066;SDS011;27734;47.028;28.820;2023-07-20T09:19:49;6.27;;;3.83;;
42066;SDS011;27734;47.028;28.820;2023-07-20T09:22:21;8.00;;;3.60;;
42066;SDS011;27734;47.028;28.820;2023-07-20T09:24:56;8.23;;;4.10;;
42066;SDS011;27734;47.028;28.820;2023-07-20T09:27:31;9.50;;;4.70;;
42066;SDS011;27734;47.028;28.820;2023-07-20T09:30:07;9.63;;;4.57;;
42066;SDS011;27734;47.028;28.820;2023-07-20T09:32:40;10.10;;;5.13;;
42066;SDS011;27734;47.028;28.820;2023-07-20T09:35:13;6.03;;;4.00;;
42066;SDS011;27734;47.028;28.820;2023-07-20T09:37:46;5.73;;;4.23;;
42066;SDS011;27734;47.028;28.820;2023-07-20T09:40:19;8.43;;;4.10;;
42066;SDS011;27734;47.028;28.820;2023-07-20T09:42:48;9.93;;;3.97;;
42066;SDS011;27734;47.028;28.820;2023-07-20T09:45:29;9.27;;;4.60;;
42066;SDS011;27734;47.028;28.820;2023-07-20T09:48:03;6.03;;;3.83;;
42066;SDS011;27734;47.028;28.820;2023-07-20T09:50:33;8.45;;;4.28;;
42066;SDS011;27734;47.028;28.820;2023-07-20T09:53:07;9.93;;;5.00;;
42066;SDS011;27734;47.028;28.820;2023-07-20T09:55:41;8.85;;;4.35;;
42066;SDS011;27734;47.028;28.820;2023-07-20T09:58:11;6.73;;;3.70;;
42066;SDS011;27734;47.028;28.820;2023-07-20T10:00:44;9.50;;;4.37;;
42066;SDS011;27734;47.028;28.820;2023-07-20T10:03:19;7.87;;;4.03;;
42066;SDS011;27734;47.028;28.820;2023-07-20T10:05:52;6.27;;;3.80;;
42066;SDS011;27734;47.028;28.820;2023-07-20T10:08:31;6.80;;;4.00;;
42066;SDS011;27734;47.028;28.820;2023-07-20T10:11:07;6.37;;;4.13;;
42066;SDS011;27734;47.028;28.820;2023-07-20T10:14:03;5.47;;;3.90;;
42066;SDS011;27734;47.028;28.820;2023-07-20T10:16:39;5.65;;;4.03;;
42066;SDS011;27734;47.028;28.820;2023-07-20T10:19:23;7.33;;;4.00;;
42066;SDS011;27734;47.028;28.820;2023-07-20T10:22:00;6.70;;;4.03;;
42066;SDS011;27734;47.028;28.820;2023-07-20T10:24:46;7.40;;;4.00;;
42066;SDS011;27734;47.028;28.820;2023-07-20T10:27:15;7.03;;;4.23;;
42066;SDS011;27734;47.028;28.820;2023-07-20T10:29:48;6.10;;;3.70;;
42066;SDS011;27734;47.028;28.820;2023-07-20T10:38:40;5.92;;;4.03;;
42066;SDS011;27734;47.028;28.820;2023-07-20T10:41:27;5.95;;;3.85;;
42066;SDS011;27734;47.028;28.820;2023-07-20T10:44:02;6.70;;;3.57;;
42066;SDS011;27734;47.028;28.820;2023-07-20T10:46:41;5.67;;;3.77;;
42066;SDS011;27734;47.028;28.820;2023-07-20T10:49:12;8.27;;;3.77;;
42066;SDS011;27734;47.028;28.820;2023-07-20T10:51:42;5.73;;;3.63;;
42066;SDS011;27734;47.028;28.820;2023-07-20T10:57:22;5.03;;;3.67;;
42066;SDS011;27734;47.028;28.820;2023-07-20T11:02:50;6.92;;;4.08;;
42066;SDS011;27734;47.028;28.820;2023-07-20T11:05:33;9.93;;;4.17;;
42066;SDS011;27734;47.028;28.820;2023-07-20T11:08:46;6.60;;;4.17;;
42066;SDS011;27734;47.028;28.820;2023-07-20T11:11:21;10.10;;;4.07;;
42066;SDS011;27734;47.028;28.820;2023-07-20T11:13:56;6.93;;;3.93;;
42066;SDS011;27734;47.028;28.820;2023-07-20T11:16:35;7.23;;;3.90;;
42066;SDS011;27734;47.028;28.820;2023-07-20T11:19:19;7.73;;;3.87;;
42066;SDS011;27734;47.028;28.820;2023-07-20T11:21:54;8.80;;;4.17;;
42066;SDS011;27734;47.028;28.820;2023-07-20T11:24:29;5.90;;;3.80;;
42066;SDS011;27734;47.028;28.820;2023-07-20T11:27:01;8.60;;;4.03;;
42066;SDS011;27734;47.028;28.820;2023-07-20T11:29:32;5.97;;;3.90;;
42066;SDS011;27734;47.028;28.820;2023-07-20T11:32:08;7.67;;;3.73;;
42066;SDS011;27734;47.028;28.820;2023-07-20T11:34:47;7.93;;;3.87;;
42066;SDS011;27734;47.028;28.820;2023-07-20T11:37:31;6.05;;;4.05;;
42066;SDS011;27734;47.028;28.820;2023-07-20T11:40:04;8.97;;;3.93;;
42066;SDS011;27734;47.028;28.820;2023-07-20T11:42:41;7.53;;;3.73;;
42066;SDS011;27734;47.028;28.820;2023-07-20T11:45:18;7.70;;;4.10;;
42066;SDS011;27734;47.028;28.820;2023-07-20T11:48:03;6.07;;;3.80;;
42066;SDS011;27734;47.028;28.820;2023-07-20T11:50:43;7.30;;;4.20;;
42066;SDS011;27734;47.028;28.820;2023-07-20T11:53:24;7.97;;;3.57;;
42066;SDS011;27734;47.028;28.820;2023-07-20T11:56:13;7.70;;;3.50;;
42066;SDS011;27734;47.028;28.820;2023-07-20T11:58:48;6.17;;;3.60;;
42066;SDS011;27734;47.028;28.820;2023-07-20T12:01:18;8.57;;;4.10;;
42066;SDS011;27734;47.028;28.820;2023-07-20T12:03:49;8.33;;;3.80;;
42066;SDS011;27734;47.028;28.820;2023-07-20T12:06:26;5.57;;;3.90;;
42066;SDS011;27734;47.028;28.820;2023-07-20T12:09:06;7.73;;;3.67;;
42066;SDS011;27734;47.028;28.820;2023-07-20T12:11:52;8.07;;;4.00;;
42066;SDS011;27734;47.028;28.820;2023-07-20T12:14:31;6.60;;;3.80;;
42066;SDS011;27734;47.028;28.820;2023-07-20T12:17:07;5.23;;;3.50;;
42066;SDS011;27734;47.028;28.820;2023-07-20T12:19:44;8.03;;;3.57;;
42066;SDS011;27734;47.028;28.820;2023-07-20T12:22:20;7.07;;;3.60;;
42066;SDS011;27734;47.028;28.820;2023-07-20T12:24:54;6.67;;;3.73;;
42066;SDS011;27734;47.028;28.820;2023-07-20T12:27:28;5.90;;;3.80;;
42066;SDS011;27734;47.028;28.820;2023-07-20T12:30:06;5.30;;;3.60;;
42066;SDS011;27734;47.028;28.820;2023-07-20T12:32:38;6.63;;;3.80;;
42066;SDS011;27734;47.028;28.820;2023-07-20T12:37:56;9.97;;;4.30;;
42066;SDS011;27734;47.028;28.820;2023-07-20T12:40:28;4.70;;;3.60;;
42066;SDS011;27734;47.028;28.820;2023-07-20T12:43:00;5.60;;;3.80;;
42066;SDS011;27734;47.028;28.820;2023-07-20T12:45:29;6.70;;;3.90;;
42066;SDS011;27734;47.028;28.820;2023-07-20T12:47:58;8.43;;;3.90;;
42066;SDS011;27734;47.028;28.820;2023-07-20T12:50:32;6.10;;;3.63;;
42066;SDS011;27734;47.028;28.820;2023-07-20T12:53:10;7.97;;;3.90;;
42066;SDS011;27734;47.028;28.820;2023-07-20T12:55:49;6.60;;;3.97;;
42066;SDS011;27734;47.028;28.820;2023-07-20T12:58:18;6.83;;;4.00;;
42066;SDS011;27734;47.028;28.820;2023-07-20T13:00:47;6.37;;;3.33;;
42066;SDS011;27734;47.028;28.820;2023-07-20T13:03:28;7.93;;;3.87;;
42066;SDS011;27734;47.028;28.820;2023-07-20T13:05:57;6.37;;;3.90;;
42066;SDS011;27734;47.028;28.820;2023-07-20T13:08:33;5.00;;;3.30;;
42066;SDS011;27734;47.028;28.820;2023-07-20T13:11:04;6.87;;;4.00;;
42066;SDS011;27734;47.028;28.820;2023-07-20T13:13:35;5.53;;;3.80;;
42066;SDS011;27734;47.028;28.820;2023-07-20T13:16:05;7.43;;;3.93;;
42066;SDS011;27734;47.028;28.820;2023-07-20T13:18:35;8.10;;;3.60;;
42066;SDS011;27734;47.028;28.820;2023-07-20T13:21:05;8.17;;;3.93;;
42066;SDS011;27734;47.028;28.820;2023-07-20T13:23:44;8.00;;;3.87;;
42066;SDS011;27734;47.028;28.820;2023-07-20T13:26:17;5.67;;;3.80;;
42066;SDS011;27734;47.028;28.820;2023-07-20T13:28:46;7.03;;;4.40;;
42066;SDS011;27734;47.028;28.820;2023-07-20T13:31:17;7.10;;;3.73;;
42066;SDS011;27734;47.028;28.820;2023-07-20T13:33:48;5.65;;;3.80;;
42066;SDS011;27734;47.028;28.820;2023-07-20T13:36:21;6.70;;;4.03;;
42066;SDS011;27734;47.028;28.820;2023-07-20T13:38:55;6.77;;;3.73;;
42066;SDS011;27734;47.028;28.820;2023-07-20T13:41:26;7.30;;;4.13;;
42066;SDS011;27734;47.028;28.820;2023-07-20T13:43:56;5.97;;;4.10;;
42066;SDS011;27734;47.028;28.820;2023-07-20T13:46:27;4.80;;;3.63;;
42066;SDS011;27734;47.028;28.820;2023-07-20T13:48:56;7.50;;;4.23;;
42066;SDS011;27734;47.028;28.820;2023-07-20T13:51:31;7.63;;;4.10;;
42066;SDS011;27734;47.028;28.820;2023-07-20T13:54:04;7.03;;;3.90;;
42066;SDS011;27734;47.028;28.820;2023-07-20T13:56:43;6.33;;;4.00;;
42066;SDS011;27734;47.028;28.820;2023-07-20T13:59:19;9.40;;;4.23;;
42066;SDS011;27734;47.028;28.820;2023-07-20T14:01:48;5.67;;;3.70;;
42066;SDS011;27734;47.028;28.820;2023-07-20T14:04:21;7.17;;;3.87;;
42066;SDS011;27734;47.028;28.820;2023-07-20T14:06:54;7.20;;;4.00;;
42066;SDS011;27734;47.028;28.820;2023-07-20T14:09:24;9.07;;;4.10;;
42066;SDS011;27734;47.028;28.820;2023-07-20T14:11:53;6.53;;;4.00;;
42066;SDS011;27734;47.028;28.820;2023-07-20T14:14:27;7.03;;;4.10;;
42066;SDS011;27734;47.028;28.820;2023-07-20T14:16:56;7.97;;;4.10;;
42066;SDS011;27734;47.028;28.820;2023-07-20T14:19:26;11.87;;;4.30;;
42066;SDS011;27734;47.028;28.820;2023-07-20T14:21:57;7.10;;;3.60;;
42066;SDS011;27734;47.028;28.820;2023-07-20T14:24:26;6.97;;;3.53;;
42066;SDS011;27734;47.028;28.820;2023-07-20T14:26:59;8.53;;;3.63;;
42066;SDS011;27734;47.028;28.820;2023-07-20T14:29:28;8.30;;;3.67;;
42066;SDS011;27734;47.028;28.820;2023-07-20T14:32:03;5.67;;;3.80;;
42066;SDS011;27734;47.028;28.820;2023-07-20T14:34:34;7.17;;;3.60;;
42066;SDS011;27734;47.028;28.820;2023-07-20T14:37:04;6.50;;;3.83;;
42066;SDS011;27734;47.028;28.820;2023-07-20T14:39:34;9.00;;;3.87;;
42066;SDS011;27734;47.028;28.820;2023-07-20T14:42:06;6.13;;;3.73;;
42066;SDS011;27734;47.028;28.820;2023-07-20T14:44:35;10.77;;;5.63;;
42066;SDS011;27734;47.028;28.820;2023-07-20T14:47:04;9.00;;;4.23;;
42066;SDS011;27734;47.028;28.820;2023-07-20T14:49:33;6.70;;;4.00;;
42066;SDS011;27734;47.028;28.820;2023-07-20T14:52:05;6.17;;;3.90;;
42066;SDS011;27734;47.028;28.820;2023-07-20T14:54:34;5.27;;;3.80;;
42066;SDS011;27734;47.028;28.820;2023-07-20T14:57:03;5.30;;;3.60;;
42066;SDS011;27734;47.028;28.820;2023-07-20T14:59:35;8.50;;;3.90;;
42066;SDS011;27734;47.028;28.820;2023-07-20T15:02:04;6.40;;;3.80;;
42066;SDS011;27734;47.028;28.820;2023-07-20T15:04:33;8.73;;;3.60;;
42066;SDS011;27734;47.028;28.820;2023-07-20T15:07:02;8.53;;;4.20;;
42066;SDS011;27734;47.028;28.820;2023-07-20T15:09:31;5.50;;;3.63;;
42066;SDS011;27734;47.028;28.820;2023-07-20T15:12:01;8.47;;;4.10;;
42066;SDS011;27734;47.028;28.820;2023-07-20T15:14:30;6.50;;;4.27;;
42066;SDS011;27734;47.028;28.820;2023-07-20T15:16:59;8.90;;;4.40;;
42066;SDS011;27734;47.028;28.820;2023-07-20T15:19:28;8.93;;;4.77;;
42066;SDS011;27734;47.028;28.820;2023-07-20T15:21:56;7.27;;;4.07;;
42066;SDS011;27734;47.028;28.820;2023-07-20T15:24:28;6.40;;;4.03;;
42066;SDS011;27734;47.028;28.820;2023-07-20T15:26:56;7.23;;;3.83;;
42066;SDS011;27734;47.028;28.820;2023-07-20T15:29:25;9.43;;;4.30;;